Time,TemperatureF,DewpointF,PressureIn,WindDirection,WindDirectionDegrees,WindSpeedMPH,WindSpeedGustMPH,Humidity,HourlyPrecipIn,Conditions,Clouds,dailyrainin,SoftwareType,DateUTC
2013-01-11 00:00:00,28.1,21.8,30.19,North,0,0.0,0.0,77,0.00,,,0.00,WUHU216HW,2013-01-11 05:00:00,
2013-01-11 00:02:00,28.1,21.8,30.18,North,0,0.0,0.0,77,0.00,,,0.00,WUHU216HW,2013-01-11 05:02:00,
2013-01-11 00:03:00,28.1,21.8,30.18,North,0,0.0,0.0,77,0.00,,,0.00,WUHU216HW,2013-01-11 05:03:00,
2013-01-11 00:08:00,27.9,21.6,30.18,North,0,0.0,0.0,77,0.00,,,0.00,WUHU216HW,2013-01-11 05:08:00,
2013-01-11 00:13:00,27.9,21.6,30.18,North,0,0.0,0.0,77,0.00,,,0.00,WUHU216HW,2013-01-11 05:13:00,
2013-01-11 00:18:00,27.7,21.4,30.18,North,0,0.0,0.0,77,0.00,,,0.00,WUHU216HW,2013-01-11 05:18:00,
2013-01-11 00:23:00,27.7,21.7,30.18,North,0,0.0,0.0,78,0.00,,,0.00,WUHU216HW,2013-01-11 05:23:00,
2013-01-11 00:28:00,27.5,21.5,30.18,North,0,0.0,0.0,78,0.00,,,0.00,WUHU216HW,2013-01-11 05:28:00,
2013-01-11 00:34:00,27.5,21.5,30.18,North,0,0.0,0.0,78,0.00,,,0.00,WUHU216HW,2013-01-11 05:34:00,
2013-01-11 00:39:00,27.4,21.7,30.18,North,0,0.0,0.0,79,0.00,,,0.00,WUHU216HW,2013-01-11 05:39:00,
2013-01-11 00:44:00,27.5,21.9,30.18,North,0,0.0,0.0,79,0.00,,,0.00,WUHU216HW,2013-01-11 05:44:00,
2013-01-11 00:49:00,27.4,21.7,30.18,North,0,0.0,0.0,79,0.00,,,0.00,WUHU216HW,2013-01-11 05:49:00,
2013-01-11 00:54:00,27.4,21.7,30.17,North,0,0.0,0.0,79,0.00,,,0.00,WUHU216HW,2013-01-11 05:54:00,
2013-01-11 00:59:00,27.4,22.0,30.17,North,0,0.0,0.0,80,0.00,,,0.00,WUHU216HW,2013-01-11 05:59:00,
2013-01-11 01:04:00,27.2,21.8,30.18,North,0,0.0,0.0,80,0.00,,,0.00,WUHU216HW,2013-01-11 06:04:00,
2013-01-11 01:09:00,27.0,21.6,30.17,North,0,0.0,0.0,80,0.00,,,0.00,WUHU216HW,2013-01-11 06:09:00,
2013-01-11 01:14:00,27.0,21.6,30.18,North,0,0.0,0.0,80,0.00,,,0.00,WUHU216HW,2013-01-11 06:14:00,
2013-01-11 01:19:00,26.8,21.4,30.18,North,0,0.0,0.0,80,0.00,,,0.00,WUHU216HW,2013-01-11 06:19:00,
2013-01-11 01:24:00,26.6,21.2,30.18,North,0,0.0,0.0,80,0.00,,,0.00,WUHU216HW,2013-01-11 06:24:00,
2013-01-11 01:29:00,26.6,21.5,30.18,North,0,0.0,0.0,81,0.00,,,0.00,WUHU216HW,2013-01-11 06:29:00,
2013-01-11 01:34:00,26.5,21.3,30.18,North,0,0.0,0.0,81,0.00,,,0.00,WUHU216HW,2013-01-11 06:34:00,
2013-01-11 01:39:00,26.5,21.3,30.18,North,0,0.0,0.0,81,0.00,,,0.00,WUHU216HW,2013-01-11 06:39:00,
2013-01-11 01:44:00,26.3,21.3,30.18,North,0,0.0,0.0,81,0.00,,,0.00,WUHU216HW,2013-01-11 06:44:00,
2013-01-11 01:49:00,26.3,21.3,30.18,North,0,0.0,0.0,81,0.00,,,0.00,WUHU216HW,2013-01-11 06:49:00,
2013-01-11 01:54:00,26.1,21.3,30.18,North,0,0.0,0.0,82,0.00,,,0.00,WUHU216HW,2013-01-11 06:54:00,
2013-01-11 01:59:00,26.1,21.1,30.18,North,0,0.0,0.0,81,0.00,,,0.00,WUHU216HW,2013-01-11 06:59:00,
2013-01-11 02:04:00,25.9,20.6,30.17,North,0,0.0,0.0,80,0.00,,,0.00,WUHU216HW,2013-01-11 07:04:00,
2013-01-11 02:09:00,25.7,20.4,30.17,North,0,0.0,0.0,80,0.00,,,0.00,WUHU216HW,2013-01-11 07:09:00,
2013-01-11 02:14:00,25.6,20.3,30.17,North,0,0.0,0.0,80,0.00,,,0.00,WUHU216HW,2013-01-11 07:14:00,
2013-01-11 02:19:00,25.6,20.3,30.17,North,0,0.0,0.0,80,0.00,,,0.00,WUHU216HW,2013-01-11 07:19:00,
2013-01-11 02:24:00,25.6,20.3,30.17,North,0,0.0,0.0,80,0.00,,,0.00,WUHU216HW,2013-01-11 07:24:00,
2013-01-11 02:29:00,25.6,20.5,30.17,North,0,0.0,0.0,81,0.00,,,0.00,WUHU216HW,2013-01-11 07:29:00,
2013-01-11 02:34:00,25.6,20.5,30.17,North,0,0.0,0.0,81,0.00,,,0.00,WUHU216HW,2013-01-11 07:34:00,
2013-01-11 02:39:00,25.4,20.3,30.17,North,0,0.0,0.0,81,0.00,,,0.00,WUHU216HW,2013-01-11 07:39:00,
2013-01-11 02:44:00,25.2,20.3,30.17,North,0,0.0,0.0,81,0.00,,,0.00,WUHU216HW,2013-01-11 07:44:00,
2013-01-11 02:49:00,25.2,20.5,30.16,North,0,0.0,0.0,82,0.00,,,0.00,WUHU216HW,2013-01-11 07:49:00,
2013-01-11 02:54:00,25.0,20.4,30.16,North,0,0.0,0.0,82,0.00,,,0.00,WUHU216HW,2013-01-11 07:54:00,
2013-01-11 02:59:00,24.8,20.2,30.16,North,0,0.0,0.0,82,0.00,,,0.00,WUHU216HW,2013-01-11 07:59:00,
2013-01-11 03:04:00,24.8,20.2,30.15,North,0,0.0,0.0,82,0.00,,,0.00,WUHU216HW,2013-01-11 08:04:00,
2013-01-11 03:09:00,24.7,20.0,30.15,North,0,0.0,0.0,82,0.00,,,0.00,WUHU216HW,2013-01-11 08:09:00,
2013-01-11 03:14:00,24.5,19.8,30.15,North,0,0.0,0.0,82,0.00,,,0.00,WUHU216HW,2013-01-11 08:14:00,
2013-01-11 03:19:00,24.5,20.1,30.15,North,0,0.0,0.0,83,0.00,,,0.00,WUHU216HW,2013-01-11 08:19:00,
2013-01-11 03:24:00,24.3,19.9,30.14,North,0,0.0,0.0,83,0.00,,,0.00,WUHU216HW,2013-01-11 08:24:00,
2013-01-11 03:29:00,24.3,19.9,30.14,North,0,0.0,0.0,83,0.00,,,0.00,WUHU216HW,2013-01-11 08:29:00,
2013-01-11 03:34:00,24.1,19.7,30.14,North,0,0.0,0.0,83,0.00,,,0.00,WUHU216HW,2013-01-11 08:34:00,
2013-01-11 03:39:00,24.1,19.7,30.14,North,0,0.0,0.0,83,0.00,,,0.00,WUHU216HW,2013-01-11 08:39:00,
2013-01-11 03:44:00,24.1,19.7,30.14,North,0,0.0,0.0,83,0.00,,,0.00,WUHU216HW,2013-01-11 08:44:00,
2013-01-11 03:49:00,24.1,19.7,30.14,North,0,0.0,0.0,83,0.00,,,0.00,WUHU216HW,2013-01-11 08:49:00,
2013-01-11 03:54:00,23.9,19.3,30.14,North,0,0.0,0.0,82,0.00,,,0.00,WUHU216HW,2013-01-11 08:54:00,
2013-01-11 03:59:00,23.8,19.1,30.13,North,0,0.0,0.0,82,0.00,,,0.00,WUHU216HW,2013-01-11 08:59:00,
2013-01-11 04:04:00,23.8,19.4,30.13,North,0,0.0,0.0,83,0.00,,,0.00,WUHU216HW,2013-01-11 09:04:00,
2013-01-11 04:09:00,23.6,19.2,30.14,North,0,0.0,0.0,83,0.00,,,0.00,WUHU216HW,2013-01-11 09:09:00,
2013-01-11 04:14:00,23.6,19.2,30.14,North,0,0.0,0.0,83,0.00,,,0.00,WUHU216HW,2013-01-11 09:14:00,
2013-01-11 04:19:00,23.4,19.3,30.14,North,0,0.0,0.0,84,0.00,,,0.00,WUHU216HW,2013-01-11 09:19:00,
2013-01-11 04:24:00,23.4,19.5,30.13,North,0,0.0,0.0,85,0.00,,,0.00,WUHU216HW,2013-01-11 09:24:00,
2013-01-11 04:29:00,23.2,19.4,30.13,North,0,0.0,0.0,85,0.00,,,0.00,WUHU216HW,2013-01-11 09:29:00,
2013-01-11 04:34:00,23.0,19.2,30.13,North,0,0.0,0.0,85,0.00,,,0.00,WUHU216HW,2013-01-11 09:34:00,
2013-01-11 04:40:00,23.0,19.2,30.13,North,0,0.0,0.0,85,0.00,,,0.00,WUHU216HW,2013-01-11 09:40:00,
2013-01-11 04:45:00,22.9,19.0,30.14,North,0,0.0,0.0,85,0.00,,,0.00,WUHU216HW,2013-01-11 09:45:00,
2013-01-11 04:50:00,22.7,18.8,30.14,North,0,0.0,0.0,85,0.00,,,0.00,WUHU216HW,2013-01-11 09:50:00,
2013-01-11 04:55:00,22.7,18.8,30.14,North,0,0.0,0.0,85,0.00,,,0.00,WUHU216HW,2013-01-11 09:55:00,
2013-01-11 05:00:00,22.7,18.8,30.14,North,0,0.0,0.0,85,0.00,,,0.00,WUHU216HW,2013-01-11 10:00:00,
2013-01-11 05:05:00,22.7,18.8,30.14,North,0,0.0,0.0,85,0.00,,,0.00,WUHU216HW,2013-01-11 10:05:00,
2013-01-11 05:10:00,22.5,18.6,30.15,North,0,0.0,0.0,85,0.00,,,0.00,WUHU216HW,2013-01-11 10:10:00,
2013-01-11 05:15:00,22.5,18.6,30.15,North,0,0.0,0.0,85,0.00,,,0.00,WUHU216HW,2013-01-11 10:15:00,
2013-01-11 05:20:00,22.3,18.5,30.15,North,0,0.0,0.0,85,0.00,,,0.00,WUHU216HW,2013-01-11 10:20:00,
2013-01-11 05:25:00,22.3,18.5,30.15,North,0,0.0,0.0,85,0.00,,,0.00,WUHU216HW,2013-01-11 10:25:00,
2013-01-11 05:30:00,22.3,18.7,30.15,North,0,0.0,0.0,86,0.00,,,0.00,WUHU216HW,2013-01-11 10:30:00,
2013-01-11 05:35:00,22.3,18.7,30.15,North,0,0.0,0.0,86,0.00,,,0.00,WUHU216HW,2013-01-11 10:35:00,
2013-01-11 05:40:00,22.1,18.5,30.15,North,0,0.0,0.0,86,0.00,,,0.00,WUHU216HW,2013-01-11 10:40:00,
2013-01-11 05:45:00,22.1,18.5,30.16,North,0,0.0,0.0,86,0.00,,,0.00,WUHU216HW,2013-01-11 10:45:00,
2013-01-11 05:50:00,22.0,18.1,30.16,North,0,0.0,0.0,85,0.00,,,0.00,WUHU216HW,2013-01-11 10:50:00,
2013-01-11 05:55:00,22.0,18.1,30.16,North,0,0.0,0.0,85,0.00,,,0.00,WUHU216HW,2013-01-11 10:55:00,
2013-01-11 06:01:00,22.0,18.1,30.16,North,0,0.0,0.0,85,0.00,,,0.00,WUHU216HW,2013-01-11 11:01:00,
2013-01-11 06:06:00,22.0,18.1,30.15,North,0,0.0,0.0,85,0.00,,,0.00,WUHU216HW,2013-01-11 11:06:00,
2013-01-11 06:11:00,22.0,18.1,30.16,North,0,0.0,0.0,85,0.00,,,0.00,WUHU216HW,2013-01-11 11:11:00,
2013-01-11 06:16:00,22.0,18.1,30.16,North,0,0.0,0.0,85,0.00,,,0.00,WUHU216HW,2013-01-11 11:16:00,
2013-01-11 06:21:00,21.8,17.9,30.16,North,0,0.0,0.0,85,0.00,,,0.00,WUHU216HW,2013-01-11 11:21:00,
2013-01-11 06:26:00,21.6,17.7,30.16,North,0,0.0,0.0,85,0.00,,,0.00,WUHU216HW,2013-01-11 11:26:00,
2013-01-11 06:31:00,21.6,18.0,30.15,North,0,0.0,0.0,86,0.00,,,0.00,WUHU216HW,2013-01-11 11:31:00,
2013-01-11 06:36:00,21.6,18.0,30.16,North,0,0.0,0.0,86,0.00,,,0.00,WUHU216HW,2013-01-11 11:36:00,
2013-01-11 06:41:00,21.6,17.7,30.16,North,0,0.0,0.0,85,0.00,,,0.00,WUHU216HW,2013-01-11 11:41:00,
2013-01-11 06:46:00,21.4,17.8,30.16,North,0,0.0,0.0,86,0.00,,,0.00,WUHU216HW,2013-01-11 11:46:00,
2013-01-11 06:51:00,21.4,17.8,30.16,North,0,0.0,0.0,86,0.00,,,0.00,WUHU216HW,2013-01-11 11:51:00,
2013-01-11 06:56:00,21.4,17.8,30.16,North,0,0.0,0.0,86,0.00,,,0.00,WUHU216HW,2013-01-11 11:56:00,
2013-01-11 07:01:00,21.4,17.8,30.16,North,0,0.0,0.0,86,0.00,,,0.00,WUHU216HW,2013-01-11 12:01:00,
2013-01-11 07:06:00,21.4,17.8,30.16,North,0,0.0,0.0,86,0.00,,,0.00,WUHU216HW,2013-01-11 12:06:00,
2013-01-11 07:11:00,21.4,17.8,30.17,North,0,0.0,0.0,86,0.00,,,0.00,WUHU216HW,2013-01-11 12:11:00,
2013-01-11 07:16:00,21.4,17.8,30.16,North,0,0.0,0.0,86,0.00,,,0.00,WUHU216HW,2013-01-11 12:16:00,
2013-01-11 07:21:00,21.4,17.8,30.16,North,0,0.0,0.0,86,0.00,,,0.00,WUHU216HW,2013-01-11 12:21:00,
2013-01-11 07:26:00,21.4,17.8,30.17,North,0,0.0,0.0,86,0.00,,,0.00,WUHU216HW,2013-01-11 12:26:00,
2013-01-11 07:31:00,21.4,18.1,30.16,North,0,0.0,0.0,87,0.00,,,0.00,WUHU216HW,2013-01-11 12:31:00,
2013-01-11 07:36:00,21.4,18.1,30.16,North,0,0.0,0.0,87,0.00,,,0.00,WUHU216HW,2013-01-11 12:36:00,
2013-01-11 07:41:00,21.6,18.3,30.16,North,0,0.0,0.0,87,0.00,,,0.00,WUHU216HW,2013-01-11 12:41:00,
2013-01-11 07:46:00,21.6,18.3,30.17,North,0,0.0,0.0,87,0.00,,,0.00,WUHU216HW,2013-01-11 12:46:00,
2013-01-11 07:51:00,21.6,18.3,30.17,North,0,0.0,0.0,87,0.00,,,0.00,WUHU216HW,2013-01-11 12:51:00,
2013-01-11 07:57:00,21.8,18.5,30.17,North,0,0.0,0.0,87,0.00,,,0.00,WUHU216HW,2013-01-11 12:57:00,
2013-01-11 08:02:00,22.0,18.6,30.17,North,0,0.0,0.0,87,0.00,,,0.00,WUHU216HW,2013-01-11 13:02:00,
2013-01-11 08:07:00,22.1,18.8,30.17,North,0,0.0,0.0,87,0.00,,,0.00,WUHU216HW,2013-01-11 13:07:00,
2013-01-11 08:12:00,22.3,19.0,30.17,North,0,0.0,0.0,87,0.00,,,0.00,WUHU216HW,2013-01-11 13:12:00,
2013-01-11 08:17:00,22.7,19.4,30.17,North,0,0.0,0.0,87,0.00,,,0.00,WUHU216HW,2013-01-11 13:17:00,
2013-01-11 08:22:00,23.0,19.7,30.16,North,0,0.0,0.0,87,0.00,,,0.00,WUHU216HW,2013-01-11 13:22:00,
2013-01-11 08:27:00,23.2,20.2,30.16,North,0,0.0,0.0,88,0.00,,,0.00,WUHU216HW,2013-01-11 13:27:00,
2013-01-11 08:32:00,23.4,20.3,30.16,North,0,0.0,0.0,88,0.00,,,0.00,WUHU216HW,2013-01-11 13:32:00,
2013-01-11 08:37:00,23.9,20.9,30.16,North,0,0.0,0.0,88,0.00,,,0.00,WUHU216HW,2013-01-11 13:37:00,
2013-01-11 08:42:00,24.3,21.2,30.16,North,0,0.0,0.0,88,0.00,,,0.00,WUHU216HW,2013-01-11 13:42:00,
2013-01-11 08:47:00,24.7,21.6,30.16,North,0,0.0,0.0,88,0.00,,,0.00,WUHU216HW,2013-01-11 13:47:00,
2013-01-11 08:52:00,25.0,22.0,30.16,North,0,0.0,0.0,88,0.00,,,0.00,WUHU216HW,2013-01-11 13:52:00,
2013-01-11 08:57:00,25.6,22.2,30.16,North,0,0.0,0.0,87,0.00,,,0.00,WUHU216HW,2013-01-11 13:57:00,
2013-01-11 09:02:00,26.3,23.0,30.15,North,0,0.0,0.0,87,0.00,,,0.00,WUHU216HW,2013-01-11 14:02:00,
2013-01-11 09:08:00,26.8,23.4,30.15,North,0,0.0,0.0,87,0.00,,,0.00,WUHU216HW,2013-01-11 14:08:00,
2013-01-11 09:13:00,27.5,24.1,30.15,North,0,0.0,0.0,87,0.00,,,0.00,WUHU216HW,2013-01-11 14:13:00,
2013-01-11 09:18:00,28.3,24.6,30.15,North,0,0.0,0.0,86,0.00,,,0.00,WUHU216HW,2013-01-11 14:18:00,
2013-01-11 09:23:00,29.0,25.3,30.15,North,0,0.0,0.0,86,0.00,,,0.00,WUHU216HW,2013-01-11 14:23:00,
2013-01-11 09:28:00,29.5,25.8,30.15,North,0,0.0,0.0,86,0.00,,,0.00,WUHU216HW,2013-01-11 14:28:00,
2013-01-11 09:33:00,30.2,26.3,30.15,North,0,0.0,0.0,85,0.00,,,0.00,WUHU216HW,2013-01-11 14:33:00,
2013-01-11 09:38:00,30.8,26.6,30.16,North,0,0.0,0.0,84,0.00,,,0.00,WUHU216HW,2013-01-11 14:38:00,
2013-01-11 09:43:00,31.5,27.0,30.15,North,0,0.0,0.0,83,0.00,,,0.00,WUHU216HW,2013-01-11 14:43:00,
2013-01-11 09:48:00,32.2,27.4,30.15,North,0,0.0,0.0,82,0.00,,,0.00,WUHU216HW,2013-01-11 14:48:00,
2013-01-11 09:53:00,32.8,27.5,30.15,North,0,0.0,0.0,81,0.00,,,0.00,WUHU216HW,2013-01-11 14:53:00,
2013-01-11 09:58:00,33.5,28.3,30.15,North,0,0.0,0.0,81,0.00,,,0.00,WUHU216HW,2013-01-11 14:58:00,
2013-01-11 10:03:00,34.0,28.7,30.15,North,0,0.0,0.0,81,0.00,,,0.00,WUHU216HW,2013-01-11 15:03:00,
2013-01-11 10:08:00,34.7,29.2,30.14,North,0,0.0,0.0,80,0.00,,,0.00,WUHU216HW,2013-01-11 15:08:00,
2013-01-11 10:14:00,34.9,29.0,30.14,North,0,0.0,0.0,79,0.00,,,0.00,WUHU216HW,2013-01-11 15:14:00,
2013-01-11 10:19:00,34.9,28.7,30.13,North,0,0.0,0.0,78,0.00,,,0.00,WUHU216HW,2013-01-11 15:19:00,
2013-01-11 10:24:00,35.5,29.3,30.13,North,0,0.0,0.0,78,0.00,,,0.00,WUHU216HW,2013-01-11 15:24:00,
2013-01-11 10:29:00,35.8,29.3,30.13,North,0,0.0,0.0,77,0.00,,,0.00,WUHU216HW,2013-01-11 15:29:00,
2013-01-11 10:34:00,36.2,29.4,30.12,North,0,0.0,0.0,76,0.00,,,0.00,WUHU216HW,2013-01-11 15:34:00,
2013-01-11 10:39:00,36.4,29.5,30.12,North,0,0.0,0.0,76,0.00,,,0.00,WUHU216HW,2013-01-11 15:39:00,
2013-01-11 10:44:00,36.5,29.7,30.12,North,0,0.0,0.0,76,0.00,,,0.00,WUHU216HW,2013-01-11 15:44:00,
2013-01-11 10:49:00,36.5,29.3,30.12,North,0,0.0,0.0,75,0.00,,,0.00,WUHU216HW,2013-01-11 15:49:00,
2013-01-11 10:54:00,36.5,29.3,30.12,North,0,0.0,0.0,75,0.00,,,0.00,WUHU216HW,2013-01-11 15:54:00,
2013-01-11 10:59:00,36.7,29.2,30.11,North,0,0.0,0.0,74,0.00,,,0.00,WUHU216HW,2013-01-11 15:59:00,
2013-01-11 11:04:00,36.9,29.3,30.11,North,0,0.0,0.0,74,0.00,,,0.00,WUHU216HW,2013-01-11 16:04:00,
2013-01-11 11:10:00,37.1,29.5,30.11,North,0,0.0,0.0,74,0.00,,,0.00,WUHU216HW,2013-01-11 16:10:00,
2013-01-11 11:15:00,37.1,29.5,30.10,North,0,0.0,0.0,74,0.00,,,0.00,WUHU216HW,2013-01-11 16:15:00,
2013-01-11 11:20:00,37.1,29.5,30.10,North,0,0.0,0.0,74,0.00,,,0.00,WUHU216HW,2013-01-11 16:20:00,
2013-01-11 11:25:00,37.3,29.4,30.09,North,0,0.0,0.0,73,0.00,,,0.00,WUHU216HW,2013-01-11 16:25:00,
2013-01-11 11:30:00,37.3,29.1,30.08,North,0,0.0,0.0,72,0.00,,,0.00,WUHU216HW,2013-01-11 16:30:00,
2013-01-11 11:35:00,37.1,28.9,30.08,North,0,0.0,0.0,72,0.00,,,0.00,WUHU216HW,2013-01-11 16:35:00,
2013-01-11 11:40:00,37.1,28.6,30.07,North,0,0.0,0.0,71,0.00,,,0.00,WUHU216HW,2013-01-11 16:40:00,
2013-01-11 11:45:00,37.1,28.6,30.07,North,0,0.0,0.0,71,0.00,,,0.00,WUHU216HW,2013-01-11 16:45:00,
2013-01-11 11:50:00,37.1,28.3,30.06,North,0,0.0,0.0,70,0.00,,,0.00,WUHU216HW,2013-01-11 16:50:00,
2013-01-11 11:55:00,37.3,28.4,30.07,North,0,0.0,0.0,70,0.00,,,0.00,WUHU216HW,2013-01-11 16:55:00,
2013-01-11 12:00:00,37.4,29.0,30.07,North,0,0.0,0.0,71,0.00,,,0.00,WUHU216HW,2013-01-11 17:00:00,
2013-01-11 12:06:00,37.8,29.3,30.07,North,0,0.0,0.0,71,0.00,,,0.00,WUHU216HW,2013-01-11 17:06:00,
2013-01-11 12:11:00,38.0,29.1,30.07,North,0,0.0,0.0,70,0.00,,,0.00,WUHU216HW,2013-01-11 17:11:00,
2013-01-11 12:16:00,38.0,28.0,30.07,North,0,0.0,0.0,67,0.00,,,0.00,WUHU216HW,2013-01-11 17:16:00,
2013-01-11 12:21:00,38.0,28.0,30.06,North,0,0.0,0.0,67,0.00,,,0.00,WUHU216HW,2013-01-11 17:21:00,
2013-01-11 12:26:00,38.0,27.6,30.06,North,0,0.0,0.0,66,0.00,,,0.00,WUHU216HW,2013-01-11 17:26:00,
2013-01-11 12:31:00,37.8,27.5,30.06,North,0,0.0,0.0,66,0.00,,,0.00,WUHU216HW,2013-01-11 17:31:00,
2013-01-11 12:36:00,37.8,27.5,30.06,North,0,0.0,0.0,66,0.00,,,0.00,WUHU216HW,2013-01-11 17:36:00,
2013-01-11 12:41:00,37.8,27.8,30.06,North,0,0.0,0.0,67,0.00,,,0.00,WUHU216HW,2013-01-11 17:41:00,
2013-01-11 12:46:00,37.8,27.8,30.06,North,0,0.0,0.0,67,0.00,,,0.00,WUHU216HW,2013-01-11 17:46:00,
2013-01-11 12:51:00,38.0,27.6,30.06,North,0,0.0,0.0,66,0.00,,,0.00,WUHU216HW,2013-01-11 17:51:00,
2013-01-11 12:57:00,37.8,27.1,30.05,North,0,0.0,0.0,65,0.00,,,0.00,WUHU216HW,2013-01-11 17:57:00,
2013-01-11 13:02:00,38.2,27.4,30.05,North,0,0.0,0.0,65,0.00,,,0.00,WUHU216HW,2013-01-11 18:02:00,
2013-01-11 13:07:00,38.3,27.5,30.05,North,0,0.0,0.0,65,0.00,,,0.00,WUHU216HW,2013-01-11 18:07:00,
2013-01-11 13:12:00,38.5,27.7,30.05,North,0,0.0,0.0,65,0.00,,,0.00,WUHU216HW,2013-01-11 18:12:00,
2013-01-11 13:17:00,38.9,27.6,30.04,North,0,0.0,0.0,64,0.00,,,0.00,WUHU216HW,2013-01-11 18:17:00,
2013-01-11 13:22:00,38.9,27.3,30.05,North,0,0.0,0.0,63,0.00,,,0.00,WUHU216HW,2013-01-11 18:22:00,
2013-01-11 13:27:00,38.9,27.6,30.05,North,0,0.0,0.0,64,0.00,,,0.00,WUHU216HW,2013-01-11 18:27:00,
2013-01-11 13:32:00,38.9,27.6,30.04,North,0,0.0,0.0,64,0.00,,,0.00,WUHU216HW,2013-01-11 18:32:00,
2013-01-11 13:37:00,38.7,27.5,30.04,North,0,0.0,0.0,64,0.00,,,0.00,WUHU216HW,2013-01-11 18:37:00,
2013-01-11 13:43:00,38.5,26.9,30.04,North,0,0.0,0.0,63,0.00,,,0.00,WUHU216HW,2013-01-11 18:43:00,
2013-01-11 13:48:00,38.5,27.4,30.03,North,0,0.0,0.0,64,0.00,,,0.00,WUHU216HW,2013-01-11 18:48:00,
2013-01-11 13:53:00,38.3,26.8,30.03,North,0,0.0,0.0,63,0.00,,,0.00,WUHU216HW,2013-01-11 18:53:00,
2013-01-11 13:58:00,38.3,27.2,30.03,North,0,0.0,0.0,64,0.00,,,0.00,WUHU216HW,2013-01-11 18:58:00,
2013-01-11 14:03:00,38.2,27.0,30.03,North,0,0.0,0.0,64,0.00,,,0.00,WUHU216HW,2013-01-11 19:03:00,
2013-01-11 14:08:00,38.2,27.0,30.03,North,0,0.0,0.0,64,0.00,,,0.00,WUHU216HW,2013-01-11 19:08:00,
2013-01-11 14:13:00,38.2,27.0,30.03,North,0,0.0,0.0,64,0.00,,,0.00,WUHU216HW,2013-01-11 19:13:00,
2013-01-11 14:18:00,38.0,26.8,30.02,North,0,0.0,0.0,64,0.00,,,0.00,WUHU216HW,2013-01-11 19:18:00,
2013-01-11 14:23:00,37.8,26.6,30.03,North,0,0.0,0.0,64,0.00,,,0.00,WUHU216HW,2013-01-11 19:23:00,
2013-01-11 14:28:00,37.6,26.9,30.03,North,0,0.0,0.0,65,0.00,,,0.00,WUHU216HW,2013-01-11 19:28:00,
2013-01-11 14:33:00,37.6,26.9,30.02,North,0,0.0,0.0,65,0.00,,,0.00,WUHU216HW,2013-01-11 19:33:00,
2013-01-11 14:38:00,37.4,26.7,30.02,North,0,0.0,0.0,65,0.00,,,0.00,WUHU216HW,2013-01-11 19:38:00,
2013-01-11 14:44:00,37.4,26.7,30.02,North,0,0.0,0.0,65,0.00,,,0.00,WUHU216HW,2013-01-11 19:44:00,
2013-01-11 14:49:00,37.4,27.1,30.02,North,0,0.0,0.0,66,0.00,,,0.00,WUHU216HW,2013-01-11 19:49:00,
2013-01-11 14:54:00,37.4,27.1,30.01,North,0,0.0,0.0,66,0.00,,,0.00,WUHU216HW,2013-01-11 19:54:00,
2013-01-11 14:59:00,37.3,26.9,30.00,North,0,0.0,0.0,66,0.00,,,0.00,WUHU216HW,2013-01-11 19:59:00,
2013-01-11 15:04:00,37.1,26.7,30.00,North,0,0.0,0.0,66,0.00,,,0.00,WUHU216HW,2013-01-11 20:04:00,
2013-01-11 15:09:00,37.1,27.2,30.00,North,0,0.0,0.0,67,0.00,,,0.00,WUHU216HW,2013-01-11 20:09:00,
2013-01-11 15:14:00,37.1,27.2,30.00,North,0,0.0,0.0,67,0.00,,,0.00,WUHU216HW,2013-01-11 20:14:00,
2013-01-11 15:19:00,37.1,27.2,30.00,North,0,0.0,0.0,67,0.00,,,0.00,WUHU216HW,2013-01-11 20:19:00,
2013-01-11 15:24:00,37.1,27.2,29.99,North,0,0.0,0.0,67,0.00,,,0.00,WUHU216HW,2013-01-11 20:24:00,
2013-01-11 15:29:00,37.1,27.2,29.99,North,0,0.0,0.0,67,0.00,,,0.00,WUHU216HW,2013-01-11 20:29:00,
2013-01-11 15:34:00,36.9,27.0,29.98,North,0,0.0,0.0,67,0.00,,,0.00,WUHU216HW,2013-01-11 20:34:00,
2013-01-11 15:39:00,36.9,27.0,29.98,North,0,0.0,0.0,67,0.00,,,0.00,WUHU216HW,2013-01-11 20:39:00,
2013-01-11 15:45:00,36.7,26.8,29.98,North,0,0.0,0.0,67,0.00,,,0.00,WUHU216HW,2013-01-11 20:45:00,
2013-01-11 15:50:00,36.7,27.2,29.98,North,0,0.0,0.0,68,0.00,,,0.00,WUHU216HW,2013-01-11 20:50:00,
2013-01-11 15:55:00,36.5,27.0,29.98,North,0,0.0,0.0,68,0.00,,,0.00,WUHU216HW,2013-01-11 20:55:00,
2013-01-11 16:00:00,36.5,27.4,29.97,North,0,0.0,0.0,69,0.00,,,0.00,WUHU216HW,2013-01-11 21:00:00,
2013-01-11 16:05:00,36.5,27.4,29.98,North,0,0.0,0.0,69,0.00,,,0.00,WUHU216HW,2013-01-11 21:05:00,
2013-01-11 16:10:00,36.4,27.2,29.97,North,0,0.0,0.0,69,0.00,,,0.00,WUHU216HW,2013-01-11 21:10:00,
2013-01-11 16:15:00,36.4,27.2,29.96,North,0,0.0,0.0,69,0.00,,,0.00,WUHU216HW,2013-01-11 21:15:00,
2013-01-11 16:20:00,36.4,27.5,29.97,North,0,0.0,0.0,70,0.00,,,0.00,WUHU216HW,2013-01-11 21:20:00,
2013-01-11 16:25:00,36.2,27.4,29.97,North,0,0.0,0.0,70,0.00,,,0.00,WUHU216HW,2013-01-11 21:25:00,
2013-01-11 16:30:00,36.2,27.4,29.97,North,0,0.0,0.0,70,0.00,,,0.00,WUHU216HW,2013-01-11 21:30:00,
2013-01-11 16:35:00,36.0,27.2,29.96,North,0,0.0,0.0,70,0.00,,,0.00,WUHU216HW,2013-01-11 21:35:00,
2013-01-11 16:40:00,36.0,27.6,29.96,North,0,0.0,0.0,71,0.00,,,0.00,WUHU216HW,2013-01-11 21:40:00,
2013-01-11 16:45:00,35.8,27.4,29.97,North,0,0.0,0.0,71,0.00,,,0.00,WUHU216HW,2013-01-11 21:45:00,
2013-01-11 16:50:00,35.6,27.2,29.97,North,0,0.0,0.0,71,0.00,,,0.00,WUHU216HW,2013-01-11 21:50:00,
2013-01-11 16:55:00,35.6,27.5,29.97,North,0,0.0,0.0,72,0.00,,,0.00,WUHU216HW,2013-01-11 21:55:00,
2013-01-11 17:00:00,35.6,27.5,29.97,North,0,0.0,0.0,72,0.00,,,0.00,WUHU216HW,2013-01-11 22:00:00,
2013-01-11 17:05:00,35.6,27.5,29.97,North,0,0.0,0.0,72,0.00,,,0.00,WUHU216HW,2013-01-11 22:05:00,
2013-01-11 17:11:00,35.6,27.8,29.97,North,0,0.0,0.0,73,0.00,,,0.00,WUHU216HW,2013-01-11 22:11:00,
2013-01-11 17:16:00,35.6,27.8,29.97,North,0,0.0,0.0,73,0.00,,,0.00,WUHU216HW,2013-01-11 22:16:00,
2013-01-11 17:21:00,35.6,27.8,29.97,North,0,0.0,0.0,73,0.00,,,0.00,WUHU216HW,2013-01-11 22:21:00,
2013-01-11 17:26:00,35.6,27.8,29.97,North,0,0.0,0.0,73,0.00,,,0.00,WUHU216HW,2013-01-11 22:26:00,
2013-01-11 17:31:00,35.6,27.8,29.96,North,0,0.0,0.0,73,0.00,,,0.00,WUHU216HW,2013-01-11 22:31:00,
2013-01-11 17:36:00,35.6,27.8,29.96,North,0,0.0,0.0,73,0.00,,,0.00,WUHU216HW,2013-01-11 22:36:00,
2013-01-11 17:41:00,35.5,27.6,29.96,North,0,0.0,0.0,73,0.00,,,0.00,WUHU216HW,2013-01-11 22:41:00,
2013-01-11 17:46:00,35.5,27.6,29.96,North,0,0.0,0.0,73,0.00,,,0.00,WUHU216HW,2013-01-11 22:46:00,
2013-01-11 17:51:00,35.3,27.7,29.96,North,0,0.0,0.0,74,0.00,,,0.00,WUHU216HW,2013-01-11 22:51:00,
2013-01-11 17:56:00,35.3,27.7,29.95,North,0,0.0,0.0,74,0.00,,,0.00,WUHU216HW,2013-01-11 22:56:00,
2013-01-11 18:01:00,35.3,27.7,29.95,North,0,0.0,0.0,74,0.00,,,0.00,WUHU216HW,2013-01-11 23:01:00,
2013-01-11 18:06:00,35.1,27.9,29.95,North,0,0.0,0.0,75,0.00,,,0.00,WUHU216HW,2013-01-11 23:06:00,
2013-01-11 18:11:00,35.1,28.3,29.95,North,0,0.0,0.0,76,0.00,,,0.00,WUHU216HW,2013-01-11 23:11:00,
2013-01-11 18:16:00,34.9,28.4,29.94,North,0,0.0,0.0,77,0.00,,,0.00,WUHU216HW,2013-01-11 23:16:00,
2013-01-11 18:21:00,34.9,29.0,29.94,North,0,0.0,0.0,79,0.01,,,0.01,WUHU216HW,2013-01-11 23:21:00,
2013-01-11 18:26:00,34.7,28.5,29.94,North,0,0.0,0.0,78,0.01,,,0.01,WUHU216HW,2013-01-11 23:26:00,
2013-01-11 18:31:00,34.6,28.6,29.94,North,0,0.0,0.0,79,0.01,,,0.01,WUHU216HW,2013-01-11 23:31:00,
2013-01-11 18:36:00,34.6,28.6,29.94,North,0,0.0,0.0,79,0.01,,,0.01,WUHU216HW,2013-01-11 23:36:00,
2013-01-11 18:41:00,34.4,28.4,29.93,North,0,0.0,0.0,79,0.01,,,0.01,WUHU216HW,2013-01-11 23:41:00,
2013-01-11 18:46:00,34.4,28.8,29.93,North,0,0.0,0.0,80,0.01,,,0.01,WUHU216HW,2013-01-11 23:46:00,
2013-01-11 18:51:00,34.4,28.8,29.93,North,0,0.0,0.0,80,0.01,,,0.01,WUHU216HW,2013-01-11 23:51:00,
2013-01-11 18:56:00,34.4,29.1,29.93,North,0,0.0,0.0,81,0.01,,,0.01,WUHU216HW,2013-01-11 23:56:00,
2013-01-11 19:01:00,34.2,29.2,29.93,North,0,0.0,0.0,82,0.01,,,0.01,WUHU216HW,2013-01-12 00:01:00,
2013-01-11 19:06:00,34.2,29.2,29.93,North,0,0.0,0.0,82,0.01,,,0.01,WUHU216HW,2013-01-12 00:06:00,
2013-01-11 19:11:00,34.2,29.2,29.93,North,0,0.0,0.0,82,0.02,,,0.02,WUHU216HW,2013-01-12 00:11:00,
2013-01-11 19:16:00,34.2,29.8,29.93,North,0,0.0,0.0,84,0.02,,,0.02,WUHU216HW,2013-01-12 00:16:00,
2013-01-11 19:21:00,34.2,29.8,29.93,North,0,0.0,0.0,84,0.01,,,0.02,WUHU216HW,2013-01-12 00:21:00,
2013-01-11 19:26:00,34.2,29.8,29.93,North,0,0.0,0.0,84,0.02,,,0.03,WUHU216HW,2013-01-12 00:26:00,
2013-01-11 19:31:00,34.0,29.9,29.93,North,0,0.0,0.0,85,0.02,,,0.03,WUHU216HW,2013-01-12 00:31:00,
2013-01-11 19:36:00,34.0,29.6,29.93,North,0,0.0,0.0,84,0.02,,,0.03,WUHU216HW,2013-01-12 00:36:00,
2013-01-11 19:41:00,34.0,29.6,29.93,North,0,0.0,0.0,84,0.02,,,0.03,WUHU216HW,2013-01-12 00:41:00,
2013-01-11 19:46:00,33.8,29.4,29.93,North,0,0.0,0.0,84,0.02,,,0.03,WUHU216HW,2013-01-12 00:46:00,
2013-01-11 19:52:00,33.8,29.4,29.93,North,0,0.0,0.0,84,0.02,,,0.03,WUHU216HW,2013-01-12 00:52:00,
2013-01-11 19:57:00,33.8,29.7,29.93,North,0,0.0,0.0,85,0.02,,,0.03,WUHU216HW,2013-01-12 00:57:00,
2013-01-11 20:02:00,33.8,29.7,29.93,North,0,0.0,0.0,85,0.02,,,0.03,WUHU216HW,2013-01-12 01:02:00,
2013-01-11 20:07:00,33.8,29.7,29.93,North,0,0.0,0.0,85,0.03,,,0.04,WUHU216HW,2013-01-12 01:07:00,
2013-01-11 20:12:00,33.8,30.0,29.93,North,0,0.0,0.0,86,0.03,,,0.05,WUHU216HW,2013-01-12 01:12:00,
2013-01-11 20:17:00,33.8,30.2,29.92,North,0,0.0,0.0,87,0.03,,,0.05,WUHU216HW,2013-01-12 01:17:00,
2013-01-11 20:22:00,33.7,30.2,29.92,North,0,0.0,0.0,87,0.03,,,0.05,WUHU216HW,2013-01-12 01:22:00,
2013-01-11 20:27:00,33.7,30.2,29.92,North,0,0.0,0.0,87,0.02,,,0.05,WUHU216HW,2013-01-12 01:27:00,
2013-01-11 20:32:00,33.7,30.4,29.92,North,0,0.0,0.0,88,0.02,,,0.05,WUHU216HW,2013-01-12 01:32:00,
2013-01-11 20:37:00,33.7,30.7,29.91,North,0,0.0,0.0,89,0.02,,,0.05,WUHU216HW,2013-01-12 01:37:00,
2013-01-11 20:42:00,33.7,30.4,29.92,North,0,0.0,0.0,88,0.02,,,0.05,WUHU216HW,2013-01-12 01:42:00,
2013-01-11 20:47:00,33.7,30.4,29.92,North,0,0.0,0.0,88,0.02,,,0.05,WUHU216HW,2013-01-12 01:47:00,
2013-01-11 20:52:00,33.7,30.4,29.92,North,0,0.0,0.0,88,0.02,,,0.05,WUHU216HW,2013-01-12 01:52:00,
2013-01-11 20:57:00,33.5,30.2,29.91,North,0,0.0,0.0,88,0.02,,,0.05,WUHU216HW,2013-01-12 01:57:00,
2013-01-11 21:02:00,33.7,30.4,29.92,North,0,0.0,0.0,88,0.01,,,0.05,WUHU216HW,2013-01-12 02:02:00,
2013-01-11 21:07:00,33.7,30.4,29.92,North,0,0.0,0.0,88,0.01,,,0.05,WUHU216HW,2013-01-12 02:07:00,
2013-01-11 21:13:00,33.7,30.7,29.92,North,0,0.0,0.0,89,0.00,,,0.05,WUHU216HW,2013-01-12 02:13:00,
2013-01-11 21:18:00,33.5,30.5,29.91,North,0,0.0,0.0,89,0.00,,,0.05,WUHU216HW,2013-01-12 02:18:00,
2013-01-11 21:23:00,33.5,30.5,29.91,North,0,0.0,0.0,89,0.00,,,0.05,WUHU216HW,2013-01-12 02:23:00,
2013-01-11 21:28:00,33.5,30.5,29.91,North,0,0.0,0.0,89,0.00,,,0.05,WUHU216HW,2013-01-12 02:28:00,
2013-01-11 21:33:00,33.7,30.7,29.91,North,0,0.0,0.0,89,0.01,,,0.06,WUHU216HW,2013-01-12 02:33:00,
2013-01-11 21:38:00,33.7,30.7,29.90,North,0,0.0,0.0,89,0.01,,,0.06,WUHU216HW,2013-01-12 02:38:00,
2013-01-11 21:43:00,33.7,31.0,29.90,North,0,0.0,0.0,90,0.01,,,0.06,WUHU216HW,2013-01-12 02:43:00,
2013-01-11 21:48:00,33.8,31.1,29.90,North,0,0.0,0.0,90,0.01,,,0.06,WUHU216HW,2013-01-12 02:48:00,
2013-01-11 21:53:00,33.8,31.4,29.90,North,0,0.0,0.0,91,0.01,,,0.06,WUHU216HW,2013-01-12 02:53:00,
2013-01-11 21:58:00,33.8,31.4,29.90,North,0,0.0,0.0,91,0.01,,,0.06,WUHU216HW,2013-01-12 02:58:00,
2013-01-11 22:03:00,33.8,31.1,29.90,North,0,0.0,0.0,90,0.01,,,0.06,WUHU216HW,2013-01-12 03:03:00,
2013-01-11 22:08:00,33.8,31.1,29.90,North,0,0.0,0.0,90,0.01,,,0.06,WUHU216HW,2013-01-12 03:08:00,
2013-01-11 22:13:00,33.8,31.1,29.90,North,0,0.0,0.0,90,0.02,,,0.07,WUHU216HW,2013-01-12 03:13:00,
2013-01-11 22:18:00,33.8,31.1,29.90,North,0,0.0,0.0,90,0.02,,,0.07,WUHU216HW,2013-01-12 03:18:00,
2013-01-11 22:23:00,33.8,31.1,29.91,North,0,0.0,0.0,90,0.03,,,0.08,WUHU216HW,2013-01-12 03:23:00,
2013-01-11 22:28:00,33.8,31.1,29.91,North,0,0.0,0.0,90,0.05,,,0.10,WUHU216HW,2013-01-12 03:28:00,
2013-01-11 22:33:00,33.7,31.0,29.91,North,0,0.0,0.0,90,0.04,,,0.10,WUHU216HW,2013-01-12 03:33:00,
2013-01-11 22:38:00,33.7,31.0,29.90,North,0,0.0,0.0,90,0.04,,,0.10,WUHU216HW,2013-01-12 03:38:00,
2013-01-11 22:43:00,33.7,31.0,29.91,North,0,0.0,0.0,90,0.05,,,0.11,WUHU216HW,2013-01-12 03:43:00,
2013-01-11 22:48:00,33.7,31.0,29.90,North,0,0.0,0.0,90,0.05,,,0.11,WUHU216HW,2013-01-12 03:48:00,
2013-01-11 22:53:00,33.7,31.0,29.90,North,0,0.0,0.0,90,0.05,,,0.11,WUHU216HW,2013-01-12 03:53:00,
2013-01-11 22:58:00,33.5,30.8,29.90,North,0,0.0,0.0,90,0.06,,,0.12,WUHU216HW,2013-01-12 03:58:00,
2013-01-11 23:03:00,33.5,30.8,29.90,North,0,0.0,0.0,90,0.06,,,0.12,WUHU216HW,2013-01-12 04:03:00,
2013-01-11 23:08:00,33.7,31.0,29.90,North,0,0.0,0.0,90,0.06,,,0.12,WUHU216HW,2013-01-12 04:08:00,
2013-01-11 23:13:00,33.7,31.0,29.90,North,0,0.0,0.0,90,0.05,,,0.12,WUHU216HW,2013-01-12 04:13:00,
2013-01-11 23:19:00,33.7,31.0,29.90,North,0,0.0,0.0,90,0.05,,,0.12,WUHU216HW,2013-01-12 04:19:00,
2013-01-11 23:24:00,33.7,31.0,29.90,North,0,0.0,0.0,90,0.05,,,0.13,WUHU216HW,2013-01-12 04:24:00,
2013-01-11 23:29:00,33.7,31.0,29.90,North,0,0.0,0.0,90,0.03,,,0.13,WUHU216HW,2013-01-12 04:29:00,
2013-01-11 23:34:00,33.7,31.0,29.90,North,0,0.0,0.0,90,0.03,,,0.13,WUHU216HW,2013-01-12 04:34:00,
2013-01-11 23:39:00,33.7,31.0,29.89,North,0,0.0,0.0,90,0.03,,,0.13,WUHU216HW,2013-01-12 04:39:00,
2013-01-11 23:44:00,33.7,31.0,29.89,North,0,0.0,0.0,90,0.02,,,0.13,WUHU216HW,2013-01-12 04:44:00,
2013-01-11 23:49:00,33.7,31.0,29.89,North,0,0.0,0.0,90,0.02,,,0.13,WUHU216HW,2013-01-12 04:49:00,
2013-01-11 23:54:00,33.7,31.0,29.89,North,0,0.0,0.0,90,0.03,,,0.14,WUHU216HW,2013-01-12 04:54:00,
2013-01-11 23:59:00,33.5,30.8,29.88,North,0,0.0,0.0,90,0.02,,,0.14,WUHU216HW,2013-01-12 04:59:00,